Time;durP1;ratioP1;P1;durP2;ratioP2;P2;SDS_P1;SDS_P2;PMS_P1;PMS_P2;Temp;Humidity;BMP_temperature;BMP_pressure;BME280_temperature;BME280_humidity;BME280_pressure;Samples;Min_cycle;Max_cycle;Signal;HPM_P1;HPM_P2
2023/02/28 00:02:18;;;;;;;7.50;5.50;;;;;;;8.34;69.31;101525.90;107955;1290;21989;-67
2023/02/28 00:04:44;;;;;;;8.90;5.70;;;;;;;8.36;69.57;101529.95;107900;1290;21990;-68
2023/02/28 00:07:10;;;;;;;8.40;5.40;;;;;;;8.35;69.42;101532.54;107884;1290;22001;-60
2023/02/28 00:09:35;;;;;;;8.70;5.90;;;;;;;8.32;69.27;101535.83;107997;1290;22027;-61
2023/02/28 00:12:10;;;;;;;7.20;5.60;;;;;;;8.31;69.33;101543.86;107973;1290;21988;-68
2023/02/28 00:14:36;;;;;;;10.30;7.00;;;;;;;8.30;69.40;101548.57;107887;1290;21998;-61
2023/02/28 00:17:02;;;;;;;8.00;5.40;;;;;;;8.27;69.39;101555.52;107950;1290;22002;-68
2023/02/28 00:19:34;;;;;;;8.10;5.40;;;;;;;8.27;69.34;101556.90;107858;1290;22001;-61
2023/02/28 00:22:00;;;;;;;8.80;6.10;;;;;;;8.28;69.22;101559.19;107808;1290;22337;-68
2023/02/28 00:24:25;;;;;;;7.90;5.40;;;;;;;8.25;69.24;101562.29;107802;1284;21996;-67
2023/02/28 00:26:51;;;;;;;8.80;5.50;;;;;;;8.23;69.63;101560.33;107835;1290;21995;-62
2023/02/28 00:29:16;;;;;;;7.90;5.80;;;;;;;8.23;69.65;101553.86;107861;1290;21998;-68
2023/02/28 00:31:42;;;;;;;7.10;5.20;;;;;;;8.22;69.67;101554.89;107807;1290;21995;-61
2023/02/28 00:34:08;;;;;;;9.90;5.60;;;;;;;8.22;69.28;101562.59;107838;1290;21985;-62
2023/02/28 00:36:43;;;;;;;8.00;5.80;;;;;;;8.23;69.60;101561.39;107840;1283;22004;-61
2023/02/28 00:39:10;;;;;;;8.30;6.20;;;;;;;8.23;69.52;101561.92;107830;1290;22032;-61
2023/02/28 00:41:36;;;;;;;8.70;6.70;;;;;;;8.23;69.38;101566.80;107922;1290;22463;-69
2023/02/28 00:44:02;;;;;;;8.70;6.00;;;;;;;8.21;69.33;101571.31;107894;1290;21994;-68
2023/02/28 00:46:28;;;;;;;9.00;6.20;;;;;;;8.18;69.50;101572.86;107841;1290;21995;-61
2023/02/28 00:48:54;;;;;;;8.00;6.40;;;;;;;8.19;69.46;101571.81;107929;1291;22006;-62
2023/02/28 00:51:19;;;;;;;10.60;6.40;;;;;;;8.19;69.39;101574.26;107845;1291;22000;-68
2023/02/28 00:53:48;;;;;;;11.50;6.90;;;;;;;8.16;69.48;101583.81;107824;1290;22001;-61
2023/02/28 00:56:14;;;;;;;11.10;6.90;;;;;;;8.14;69.41;101584.33;107827;1290;23122;-68
2023/02/28 00:58:40;;;;;;;8.40;5.40;;;;;;;8.14;69.26;101582.23;107830;1290;22000;-67
2023/02/28 01:01:06;;;;;;;8.40;5.90;;;;;;;8.13;69.25;101580.99;107824;1290;21989;-61
2023/02/28 01:03:32;;;;;;;8.10;5.50;;;;;;;8.13;69.04;101579.24;107801;1290;21993;-63
2023/02/28 01:05:58;;;;;;;9.60;6.50;;;;;;;8.14;69.24;101588.70;107809;1290;21999;-61
2023/02/28 01:08:24;;;;;;;11.90;7.00;;;;;;;8.13;69.20;101596.19;107800;1290;22010;-64
2023/02/28 01:10:50;;;;;;;10.20;6.50;;;;;;;8.10;69.07;101598.77;107780;1287;22006;-68
2023/02/28 01:13:16;;;;;;;9.60;6.50;;;;;;;8.09;68.97;101595.78;107789;1290;22003;-62
2023/02/28 01:15:46;;;;;;;11.50;7.20;;;;;;;8.09;69.19;101594.38;107884;1278;22001;-61
2023/02/28 01:18:15;;;;;;;8.40;6.30;;;;;;;8.07;69.08;101593.46;107687;1290;21989;-61
2023/02/28 01:20:40;;;;;;;9.00;6.60;;;;;;;8.07;69.00;101591.90;107794;1290;21993;-68
2023/02/28 01:23:06;;;;;;;9.80;7.10;;;;;;;8.05;69.06;101590.98;107795;1290;21992;-61
2023/02/28 01:25:35;;;;;;;9.90;6.90;;;;;;;8.05;69.01;101585.91;107868;1290;22003;-68
2023/02/28 01:28:01;;;;;;;11.00;7.40;;;;;;;8.04;68.81;101585.38;108007;1290;22003;-62
2023/02/28 01:30:32;;;;;;;16.40;9.70;;;;;;;8.02;68.63;101591.28;107967;1277;22050;-68
2023/02/28 01:32:59;;;;;;;12.70;7.60;;;;;;;8.00;68.37;101596.48;107887;1290;21996;-61
2023/02/28 01:35:25;;;;;;;24.70;13.00;;;;;;;7.99;68.58;101597.52;107840;1290;22003;-68
2023/02/28 01:37:52;;;;;;;23.60;13.00;;;;;;;8.00;68.92;101601.90;107790;1290;21996;-67
2023/02/28 01:40:18;;;;;;;19.20;11.90;;;;;;;7.96;69.00;101617.04;107873;1291;21996;-68
2023/02/28 01:42:43;;;;;;;18.00;10.70;;;;;;;7.94;68.74;101626.81;107812;1290;21996;-63
2023/02/28 01:45:22;;;;;;;16.60;10.80;;;;;;;7.93;68.67;101640.06;107817;1291;21995;-68
2023/02/28 01:47:49;;;;;;;15.90;9.80;;;;;;;7.91;68.62;101650.52;107939;1291;22034;-61
2023/02/28 01:50:18;;;;;;;15.30;9.50;;;;;;;7.86;68.72;101652.34;107859;1291;21988;-61
2023/02/28 01:52:44;;;;;;;13.90;9.80;;;;;;;7.84;68.40;101652.98;107746;1291;21990;-61
2023/02/28 01:55:11;;;;;;;16.00;9.70;;;;;;;7.82;68.31;101650.17;107866;1291;22010;-68
2023/02/28 01:57:40;;;;;;;14.50;9.50;;;;;;;7.81;68.25;101651.20;107886;1290;21995;-61
2023/02/28 02:00:14;;;;;;;17.80;10.30;;;;;;;7.80;68.38;101653.95;107939;1290;22031;-61
2023/02/28 02:02:46;;;;;;;17.30;9.10;;;;;;;7.79;68.36;101646.80;107828;1290;23718;-68
2023/02/28 02:05:19;;;;;;;14.50;9.20;;;;;;;7.79;68.50;101642.59;107863;1290;21989;-60
2023/02/28 02:07:51;;;;;;;16.50;9.90;;;;;;;7.78;68.64;101646.95;107864;1291;21999;-61
2023/02/28 02:10:42;;;;;;;13.20;8.30;;;;;;;7.74;68.41;101653.33;107844;1290;23059;-61
2023/02/28 02:13:20;;;;;;;37.00;10.20;;;;;;;7.69;68.31;101662.50;107788;1277;21989;-68
2023/02/28 02:16:11;;;;;;;12.20;8.50;;;;;;;7.64;68.18;101667.46;107774;1290;21995;-60
2023/02/28 02:18:45;;;;;;;13.10;9.20;;;;;;;7.65;68.26;101667.98;107878;1290;22015;-68
2023/02/28 02:21:33;;;;;;;13.70;9.20;;;;;;;7.63;68.28;101667.45;107942;1291;23053;-61
2023/02/28 02:24:25;;;;;;;14.50;9.10;;;;;;;7.63;68.26;101679.84;107815;1291;22000;-61
2023/02/28 02:26:54;;;;;;;13.20;8.40;;;;;;;7.62;68.10;101688.89;107778;1290;21993;-68
2023/02/28 02:29:26;;;;;;;12.10;8.20;;;;;;;7.62;68.13;101689.79;107831;1291;22004;-61
2023/02/28 02:32:03;;;;;;;12.00;8.30;;;;;;;7.61;68.19;101685.55;107803;1291;21998;-61
2023/02/28 02:35:02;;;;;;;12.60;8.60;;;;;;;7.61;68.14;101684.35;107797;1291;21993;-69
2023/02/28 02:37:49;;;;;;;12.40;7.90;;;;;;;7.64;68.07;101689.46;107848;1290;21990;-61
2023/02/28 02:40:19;;;;;;;14.40;8.80;;;;;;;7.65;68.09;101695.95;107106;1277;1002170;-61
2023/02/28 02:43:01;;;;;;;11.80;8.20;;;;;;;7.61;67.94;101700.23;107827;1288;21996;-68
2023/02/28 02:45:35;;;;;;;11.20;7.80;;;;;;;7.51;68.62;101703.67;107828;1290;22007;-68
2023/02/28 02:48:01;;;;;;;11.20;7.80;;;;;;;7.50;68.96;101701.40;108063;1291;22756;-67
2023/02/28 02:50:40;;;;;;;11.10;7.60;;;;;;;7.48;68.92;101701.71;107782;1290;354880;-61
2023/02/28 02:53:07;;;;;;;11.40;8.00;;;;;;;7.47;69.01;101703.60;107886;1290;22027;-61
2023/02/28 02:55:36;;;;;;;12.50;7.40;;;;;;;7.45;69.11;101711.42;107879;1290;22003;-68
2023/02/28 02:58:04;;;;;;;14.50;8.70;;;;;;;7.44;69.13;101711.77;107933;1290;21999;-68
2023/02/28 03:00:42;;;;;;;12.20;8.60;;;;;;;7.45;69.08;101710.74;107820;1291;22050;-68
2023/02/28 03:03:09;;;;;;;11.30;7.90;;;;;;;7.47;69.14;101710.95;107803;1290;21990;-69
2023/02/28 03:05:58;;;;;;;10.40;7.60;;;;;;;7.46;68.75;101712.15;107730;1287;21994;-61
2023/02/28 03:08:24;;;;;;;12.00;7.70;;;;;;;7.46;68.54;101715.29;107949;1290;21990;-61
2023/02/28 03:10:51;;;;;;;10.10;7.50;;;;;;;7.46;68.75;101718.44;107774;1287;21993;-61
2023/02/28 03:13:23;;;;;;;10.00;6.80;;;;;;;7.48;68.83;101715.34;107910;1290;22042;-61
2023/02/28 03:16:12;;;;;;;10.60;7.40;;;;;;;7.50;68.73;101714.50;107966;1284;21992;-67
2023/02/28 03:18:52;;;;;;;12.00;8.10;;;;;;;7.53;68.81;101717.02;107827;1290;22007;-68
2023/02/28 03:21:36;;;;;;;11.20;7.40;;;;;;;7.56;68.96;101715.67;107844;1290;22003;-62
2023/02/28 03:24:15;;;;;;;12.60;8.30;;;;;;;7.54;68.55;101719.48;107850;1290;23650;-68
2023/02/28 03:26:43;;;;;;;12.20;8.50;;;;;;;7.51;68.55;101712.95;107848;1291;23720;-68
2023/02/28 03:29:17;;;;;;;12.90;8.60;;;;;;;7.50;68.76;101711.89;107850;1291;21993;-61
2023/02/28 03:31:52;;;;;;;13.50;8.20;;;;;;;7.51;68.39;101714.52;107803;1291;21993;-61
2023/02/28 03:34:23;;;;;;;11.80;8.90;;;;;;;7.50;68.21;101721.32;107123;1291;1002328;-61
2023/02/28 03:36:55;;;;;;;11.90;7.90;;;;;;;7.47;67.96;101721.96;107802;1283;21993;-61
2023/02/28 03:39:24;;;;;;;12.10;8.70;;;;;;;7.42;67.89;101721.67;107038;1290;1002729;-68
2023/02/28 03:41:57;;;;;;;13.30;8.40;;;;;;;7.36;67.60;101720.48;107928;1291;22030;-68
2023/02/28 03:44:43;;;;;;;11.80;8.40;;;;;;;7.34;67.70;101721.48;107833;1290;21993;-64
2023/02/28 03:47:12;;;;;;;13.10;7.80;;;;;;;7.34;67.71;101721.65;107924;1290;21985;-68
2023/02/28 03:49:48;;;;;;;13.20;8.30;;;;;;;7.33;67.46;101724.95;107823;1283;22030;-68
2023/02/28 03:52:14;;;;;;;12.50;8.10;;;;;;;7.30;67.68;101732.39;107856;1290;23698;-68
2023/02/28 03:54:49;;;;;;;13.40;8.70;;;;;;;7.26;67.80;101732.82;107929;1290;21993;-68
2023/02/28 03:57:30;;;;;;;13.80;8.00;;;;;;;7.26;68.02;101726.39;107858;1286;22043;-68
2023/02/28 04:00:28;;;;;;;12.10;8.30;;;;;;;7.26;67.90;101714.51;107838;1290;22007;-62
2023/02/28 04:02:54;;;;;;;14.40;8.00;;;;;;;7.25;67.98;101714.48;107814;1287;22046;-61
2023/02/28 04:05:24;;;;;;;12.40;7.90;;;;;;;7.25;67.85;101708.20;107830;1290;22026;-61
2023/02/28 04:07:50;;;;;;;13.20;8.10;;;;;;;7.24;67.96;101705.04;107658;1278;21994;-68
2023/02/28 04:10:16;;;;;;;14.00;9.30;;;;;;;7.24;67.97;101705.54;107848;1290;22056;-61
2023/02/28 04:12:42;;;;;;;12.00;8.50;;;;;;;7.24;68.22;101708.00;107874;1287;21994;-61
2023/02/28 04:15:10;;;;;;;15.10;8.30;;;;;;;7.28;68.25;101712.63;107829;1279;21994;-61
2023/02/28 04:17:39;;;;;;;13.70;8.60;;;;;;;7.28;68.10;101716.82;107098;1290;1002928;-61
2023/02/28 04:20:09;;;;;;;13.30;9.10;;;;;;;7.30;68.11;101724.88;107757;1290;22002;-61
2023/02/28 04:22:36;;;;;;;13.40;7.90;;;;;;;7.32;68.05;101722.13;107800;1290;22033;-68
2023/02/28 04:25:01;;;;;;;11.50;7.10;;;;;;;7.34;67.73;101719.56;108011;1289;22000;-61
2023/02/28 04:27:29;;;;;;;11.00;7.40;;;;;;;7.35;67.43;101723.41;107788;1287;22005;-68
2023/02/28 04:29:55;;;;;;;12.70;8.10;;;;;;;7.34;67.31;101726.02;107779;1290;21997;-61
2023/02/28 04:32:20;;;;;;;12.50;8.40;;;;;;;7.33;67.21;101733.67;107758;1277;21990;-62
2023/02/28 04:34:47;;;;;;;12.70;8.20;;;;;;;7.32;67.11;101738.36;107826;1290;22003;-68
2023/02/28 04:37:14;;;;;;;12.20;8.00;;;;;;;7.32;67.00;101742.38;107900;1290;22102;-68
2023/02/28 04:39:42;;;;;;;13.70;8.90;;;;;;;7.29;67.00;101745.64;107882;1279;22458;-61
2023/02/28 04:42:09;;;;;;;11.80;7.60;;;;;;;7.27;66.89;101750.86;107875;1290;21998;-61
2023/02/28 04:44:34;;;;;;;13.00;8.20;;;;;;;7.24;67.18;101756.19;107860;1290;21995;-67
2023/02/28 04:47:00;;;;;;;11.80;7.60;;;;;;;7.27;67.83;101756.77;107815;1290;21962;-61
2023/02/28 04:49:27;;;;;;;18.80;8.60;;;;;;;7.30;67.75;101757.70;107818;1290;21993;-62
2023/02/28 04:51:53;;;;;;;11.30;7.80;;;;;;;7.32;68.21;101762.63;107822;1287;21993;-62
2023/02/28 04:54:21;;;;;;;12.50;8.40;;;;;;;7.33;68.63;101765.27;107837;1290;21998;-68
2023/02/28 04:56:49;;;;;;;14.00;8.20;;;;;;;7.35;68.39;101768.66;107803;1290;21994;-68
2023/02/28 04:59:17;;;;;;;13.70;8.00;;;;;;;7.37;67.97;101769.73;107832;1290;21998;-68
2023/02/28 05:01:45;;;;;;;21.10;11.90;;;;;;;7.34;67.55;101773.86;107774;1290;23673;-68
2023/02/28 05:04:11;;;;;;;30.70;20.80;;;;;;;7.32;68.24;101776.10;107825;1290;21981;-62
2023/02/28 05:06:39;;;;;;;27.80;21.50;;;;;;;7.36;68.46;101776.02;107890;1290;21999;-68
2023/02/28 05:09:04;;;;;;;39.30;26.30;;;;;;;7.43;68.86;101779.67;108003;1290;21996;-62
2023/02/28 05:11:35;;;;;;;23.50;15.50;;;;;;;7.49;68.92;101783.48;107806;1290;22007;-68
2023/02/28 05:14:04;;;;;;;15.10;9.20;;;;;;;7.56;69.07;101782.23;107874;1290;22002;-62
2023/02/28 05:16:31;;;;;;;15.80;8.80;;;;;;;7.59;68.43;101777.40;107785;1291;22003;-67
2023/02/28 05:19:00;;;;;;;;;;;;;;;7.58;68.26;101779.32;107817;1291;22442;-67
2023/02/28 05:21:28;;;;;;;14.60;8.30;;;;;;;7.57;68.17;101780.35;107045;1281;1003142;-61
2023/02/28 05:23:54;;;;;;;12.20;8.20;;;;;;;7.61;68.60;101776.73;107839;1290;22087;-68
2023/02/28 05:26:20;;;;;;;15.70;8.70;;;;;;;7.66;68.71;101773.02;107839;1290;21993;-62
2023/02/28 05:28:46;;;;;;;12.70;8.90;;;;;;;7.72;69.53;101769.66;107796;1290;22003;-62
2023/02/28 05:31:12;;;;;;;14.90;9.60;;;;;;;7.83;69.71;101776.88;107895;1290;22016;-61
2023/02/28 05:33:39;;;;;;;10.40;7.70;;;;;;;7.89;69.30;101776.48;107893;1290;21992;-67
2023/02/28 05:36:08;;;;;;;10.70;8.00;;;;;;;7.94;69.25;101781.13;107928;1287;23822;-68
2023/02/28 05:38:33;;;;;;;10.40;8.00;;;;;;;8.00;69.78;101784.39;107809;1290;21990;-62
2023/02/28 05:41:10;;;;;;;12.90;8.00;;;;;;;8.05;69.57;101784.86;107717;1291;21995;-62
2023/02/28 05:43:37;;;;;;;11.10;7.60;;;;;;;8.07;69.25;101782.95;107043;1287;1003019;-63
2023/02/28 05:46:05;;;;;;;11.60;7.90;;;;;;;8.08;68.86;101778.10;107823;1290;21994;-62
2023/02/28 05:48:32;;;;;;;11.70;8.20;;;;;;;8.05;68.91;101779.61;107750;1290;23619;-68
2023/02/28 05:50:58;;;;;;;12.00;8.50;;;;;;;8.07;69.54;101783.16;107850;1289;21998;-62
2023/02/28 05:53:24;;;;;;;12.20;8.40;;;;;;;8.13;69.60;101783.79;107778;1291;22033;-62
2023/02/28 05:55:50;;;;;;;13.70;8.50;;;;;;;8.16;69.08;101791.38;107752;1279;21988;-62
2023/02/28 05:58:16;;;;;;;14.40;10.20;;;;;;;8.17;68.90;101799.94;107748;1290;22237;-68
2023/02/28 06:00:41;;;;;;;14.00;9.60;;;;;;;8.17;68.97;101805.55;107716;1290;21999;-62
2023/02/28 06:03:08;;;;;;;12.30;9.60;;;;;;;8.19;69.08;101805.08;107746;1290;21999;-62
2023/02/28 06:05:34;;;;;;;12.00;8.80;;;;;;;8.18;69.02;101806.28;107736;1290;21992;-68
2023/02/28 06:08:00;;;;;;;12.50;9.00;;;;;;;8.20;68.95;101810.50;107738;1286;21990;-63
2023/02/28 06:10:25;;;;;;;10.30;7.50;;;;;;;8.23;69.21;101819.48;107780;1290;21996;-62
2023/02/28 06:12:51;;;;;;;12.90;7.60;;;;;;;8.24;69.20;101820.03;107755;1290;21998;-62
2023/02/28 06:15:17;;;;;;;14.40;10.00;;;;;;;8.31;69.29;101813.70;107740;1290;22002;-62
2023/02/28 06:17:43;;;;;;;16.90;10.40;;;;;;;8.31;69.20;101809.52;107762;1290;21993;-68
2023/02/28 06:20:12;;;;;;;18.10;11.20;;;;;;;8.31;69.06;101806.36;107784;1291;22023;-62
2023/02/28 06:22:39;;;;;;;16.90;11.30;;;;;;;8.31;69.00;101804.78;107801;1291;21996;-68
2023/02/28 06:25:05;;;;;;;20.70;12.80;;;;;;;8.34;69.42;101803.80;107847;1290;21996;-68
2023/02/28 06:27:32;;;;;;;21.60;12.70;;;;;;;8.40;69.44;101804.44;107767;1290;21997;-64
2023/02/28 06:29:58;;;;;;;16.50;11.30;;;;;;;8.47;69.72;101806.85;107796;1290;22195;-63
2023/02/28 06:32:24;;;;;;;16.00;9.70;;;;;;;8.51;69.34;101811.85;107052;1290;1002338;-68
2023/02/28 06:34:50;;;;;;;14.00;8.90;;;;;;;8.54;68.91;101812.25;107875;1290;23443;-63
2023/02/28 06:37:18;;;;;;;13.60;8.70;;;;;;;8.54;68.97;101808.59;107760;1290;21999;-68
2023/02/28 06:39:44;;;;;;;12.50;9.40;;;;;;;8.53;68.54;101808.21;107800;1290;22001;-63
2023/02/28 06:42:11;;;;;;;12.60;9.50;;;;;;;8.52;68.63;101806.27;107736;1288;22344;-64
2023/02/28 06:44:36;;;;;;;12.90;8.80;;;;;;;8.56;68.99;101805.11;107829;1279;21997;-68
2023/02/28 06:47:03;;;;;;;13.20;9.00;;;;;;;8.61;69.01;101803.13;107740;1286;21993;-64
2023/02/28 06:49:30;;;;;;;12.70;8.60;;;;;;;8.64;68.62;101801.06;107903;1287;22005;-69
2023/02/28 06:51:56;;;;;;;14.10;9.10;;;;;;;8.65;68.77;101800.39;107929;1290;21993;-63
2023/02/28 06:54:22;;;;;;;12.70;9.10;;;;;;;8.66;69.00;101803.20;107762;1290;21997;-70
2023/02/28 06:56:49;;;;;;;13.90;9.50;;;;;;;8.70;69.24;101807.30;107755;1290;21999;-64
2023/02/28 06:59:14;;;;;;;13.50;9.10;;;;;;;8.75;69.00;101807.75;107781;1290;22006;-64
2023/02/28 07:01:40;;;;;;;13.30;9.50;;;;;;;8.75;68.56;101814.75;107772;1290;22153;-70
2023/02/28 07:04:06;;;;;;;12.60;9.70;;;;;;;8.80;68.92;101819.73;107821;1290;22347;-64
2023/02/28 07:06:32;;;;;;;13.60;8.80;;;;;;;8.85;69.13;101821.93;107959;1290;21995;-65
2023/02/28 07:08:58;;;;;;;14.30;9.50;;;;;;;8.89;69.15;101826.38;107827;1290;21997;-64
2023/02/28 07:11:25;;;;;;;14.60;9.90;;;;;;;8.89;68.53;101826.38;107785;1290;21998;-69
2023/02/28 07:13:54;;;;;;;10.80;8.30;;;;;;;8.89;68.15;101825.33;107819;1290;21994;-65
2023/02/28 07:16:21;;;;;;;12.80;9.10;;;;;;;8.92;68.82;101830.98;107864;1279;21996;-69
2023/02/28 07:18:47;;;;;;;13.10;9.80;;;;;;;8.98;69.11;101835.98;107728;1290;22027;-69
2023/02/28 07:21:13;;;;;;;15.60;11.10;;;;;;;9.05;69.21;101838.20;107756;1290;21992;-68
2023/02/28 07:23:39;;;;;;;17.40;13.10;;;;;;;9.10;69.22;101844.95;107828;1290;21991;-69
2023/02/28 07:26:06;;;;;;;14.00;10.00;;;;;;;9.15;69.09;101848.00;107932;1290;21997;-64
2023/02/28 07:28:34;;;;;;;13.00;9.60;;;;;;;9.17;68.58;101849.63;107895;1290;21995;-65
2023/02/28 07:31:06;;;;;;;14.20;10.30;;;;;;;9.19;68.44;101853.70;107802;1290;21956;-65
2023/02/28 07:33:33;;;;;;;13.90;10.30;;;;;;;9.25;69.00;101859.91;107761;1290;22033;-69
2023/02/28 07:36:03;;;;;;;12.70;9.50;;;;;;;9.32;69.00;101856.86;107792;1290;21969;-65
2023/02/28 07:38:30;;;;;;;14.50;10.20;;;;;;;9.36;68.87;101859.22;107773;1290;22005;-70
2023/02/28 07:40:56;;;;;;;14.40;9.40;;;;;;;9.43;68.80;101858.80;107774;1290;22002;-64
2023/02/28 07:43:22;;;;;;;14.00;9.70;;;;;;;9.48;68.76;101864.85;107806;1290;22001;-69
2023/02/28 07:45:47;;;;;;;13.70;9.50;;;;;;;9.50;68.13;101872.05;107972;1290;21995;-65
2023/02/28 07:48:13;;;;;;;13.40;9.60;;;;;;;9.51;68.42;101868.74;107727;1290;21997;-66
2023/02/28 07:50:39;;;;;;;12.90;10.00;;;;;;;9.60;69.57;101866.79;107748;1290;22040;-66
2023/02/28 07:53:05;;;;;;;15.30;9.70;;;;;;;9.68;68.93;101868.32;107769;1290;22003;-69
2023/02/28 07:55:32;;;;;;;11.50;8.70;;;;;;;9.74;68.87;101869.80;107759;1290;22373;-65
2023/02/28 07:57:58;;;;;;;13.60;9.70;;;;;;;9.82;68.65;101871.67;107772;1290;21996;-70
2023/02/28 08:00:24;;;;;;;13.90;10.00;;;;;;;9.98;68.29;101875.23;107930;1290;22160;-65
2023/02/28 08:02:49;;;;;;;24.00;16.10;;;;;;;10.08;67.79;101877.13;107725;1290;22000;-64
2023/02/28 08:05:18;;;;;;;19.20;13.80;;;;;;;10.17;67.61;101885.83;107949;1290;21990;-69
2023/02/28 08:07:48;;;;;;;18.30;11.90;;;;;;;10.28;68.19;101887.75;107807;1290;22000;-69
2023/02/28 08:10:15;;;;;;;15.40;11.10;;;;;;;10.41;67.66;101894.59;107764;1290;22939;-69
2023/02/28 08:12:42;;;;;;;15.00;10.70;;;;;;;10.55;68.12;101893.20;108069;1290;21991;-64
2023/02/28 08:15:08;;;;;;;12.80;9.90;;;;;;;10.74;68.97;101889.73;107821;1290;21997;-68
2023/02/28 08:17:34;;;;;;;13.80;10.80;;;;;;;10.96;69.69;101891.90;107870;1290;22052;-68
2023/02/28 08:20:00;;;;;;;25.40;16.30;;;;;;;11.16;69.04;101895.07;107958;1290;21993;-66
2023/02/28 08:22:25;;;;;;;56.40;32.40;;;;;;;11.24;66.52;101895.67;107807;1290;21993;-66
2023/02/28 08:24:51;;;;;;;48.70;24.00;;;;;;;11.27;66.52;101897.98;107799;1290;23618;-65
2023/02/28 08:27:17;;;;;;;32.00;19.70;;;;;;;11.35;66.67;101903.16;107787;1290;22023;-66
2023/02/28 08:29:43;;;;;;;21.60;14.20;;;;;;;11.43;66.88;101903.75;107791;1290;22040;-66
2023/02/28 08:32:09;;;;;;;21.40;14.20;;;;;;;11.53;67.29;101902.25;107826;1290;21996;-68
2023/02/28 08:34:35;;;;;;;20.50;13.10;;;;;;;11.61;67.09;101899.85;107832;1279;21991;-65
2023/02/28 08:37:02;;;;;;;18.30;11.30;;;;;;;11.66;66.02;101906.23;107830;1290;22001;-68
2023/02/28 08:39:28;;;;;;;14.70;10.50;;;;;;;11.69;66.66;101905.72;107903;1290;21993;-65
2023/02/28 08:41:54;;;;;;;17.10;10.30;;;;;;;11.76;67.44;101902.07;107824;1290;21991;-67
2023/02/28 08:44:20;;;;;;;14.20;10.50;;;;;;;11.91;68.62;101899.53;107878;1287;24120;-68
2023/02/28 08:46:45;;;;;;;30.70;18.30;;;;;;;12.07;68.10;101893.86;107875;1287;21998;-69
2023/02/28 08:49:11;;;;;;;33.00;21.90;;;;;;;12.20;67.57;101887.08;107767;1290;22085;-66
2023/02/28 08:51:39;;;;;;;48.40;27.00;;;;;;;12.38;67.91;101877.82;107829;1290;21992;-69
2023/02/28 08:54:04;;;;;;;64.50;37.50;;;;;;;12.52;66.21;101877.70;107915;1290;23743;-66
2023/02/28 08:56:32;;;;;;;115.40;52.30;;;;;;;12.57;65.96;101875.42;107859;1290;22002;-67
2023/02/28 08:58:58;;;;;;;59.70;34.60;;;;;;;12.61;64.68;101872.80;107825;1290;22019;-68
2023/02/28 09:01:26;;;;;;;27.50;18.60;;;;;;;12.67;64.90;101869.13;107879;1290;22000;-68
2023/02/28 09:03:53;;;;;;;25.60;16.70;;;;;;;12.79;65.23;101868.98;107839;1290;22031;-68
2023/02/28 09:06:19;;;;;;;21.40;13.40;;;;;;;12.94;66.49;101865.67;107927;1289;22000;-68
2023/02/28 09:08:44;;;;;;;25.30;15.00;;;;;;;13.16;66.99;101861.82;108068;1289;21998;-68
2023/02/28 09:11:11;;;;;;;19.50;14.70;;;;;;;13.29;65.70;101859.52;107875;1290;21992;-69
2023/02/28 09:13:42;;;;;;;16.70;12.80;;;;;;;13.35;63.88;101863.40;107889;1290;22060;-70
2023/02/28 09:16:10;;;;;;;14.30;10.40;;;;;;;13.29;61.64;101866.74;107789;1290;23791;-68
2023/02/28 09:18:39;;;;;;;16.30;11.90;;;;;;;13.21;62.31;101867.45;107739;1290;21993;-69
2023/02/28 09:21:10;;;;;;;13.20;10.50;;;;;;;13.25;64.17;101866.75;107769;1291;21996;-69
2023/02/28 09:23:38;;;;;;;14.90;10.50;;;;;;;13.40;64.80;101859.01;108027;1290;23650;-70
2023/02/28 09:26:07;;;;;;;;;;;;;;;13.63;66.14;101861.48;107980;1290;21976;-69
2023/02/28 09:28:33;;;;;;;13.70;10.90;;;;;;;13.82;65.02;101864.09;107954;1290;22014;-70
2023/02/28 09:30:58;;;;;;;13.90;10.70;;;;;;;13.83;61.87;101869.91;107905;1290;21987;-67
2023/02/28 09:33:25;;;;;;;13.80;10.90;;;;;;;13.77;62.19;101872.73;107782;1291;21998;-66
2023/02/28 09:35:58;;;;;;;14.10;11.10;;;;;;;13.68;59.17;101875.05;107842;1287;21998;-68
2023/02/28 09:38:24;;;;;;;14.70;11.80;;;;;;;13.42;57.02;101876.63;107788;1290;22960;-66
2023/02/28 09:40:51;;;;;;;13.30;11.50;;;;;;;13.22;58.77;101882.26;107773;1290;21996;-66
2023/02/28 09:43:22;;;;;;;13.10;10.60;;;;;;;13.07;58.30;101884.89;107852;1286;22423;-66
2023/02/28 09:46:00;;;;;;;13.30;11.00;;;;;;;12.92;59.16;101886.09;107704;1291;22005;-68
2023/02/28 09:48:34;;;;;;;13.60;10.20;;;;;;;12.78;59.49;101885.52;107771;1290;21991;-66
2023/02/28 09:51:06;;;;;;;15.00;11.70;;;;;;;12.59;56.46;101883.54;107761;1290;22005;-67
2023/02/28 09:53:34;;;;;;;14.10;11.50;;;;;;;12.44;57.35;101883.65;107785;1290;21998;-66
2023/02/28 09:56:08;;;;;;;14.00;11.40;;;;;;;12.43;59.30;101882.42;107785;1290;24480;-67
2023/02/28 09:58:54;;;;;;;15.20;12.70;;;;;;;12.47;59.21;101879.09;107761;1290;21995;-66
2023/02/28 10:01:25;;;;;;;14.20;11.30;;;;;;;12.56;60.03;101874.20;107737;1290;22000;-68
2023/02/28 10:04:00;;;;;;;12.50;10.20;;;;;;;12.72;61.19;101866.67;107795;1290;21996;-67
2023/02/28 10:06:30;;;;;;;11.10;8.90;;;;;;;12.89;60.09;101864.61;107853;1291;23712;-67
2023/02/28 10:09:03;;;;;;;16.00;12.10;;;;;;;12.96;56.98;101860.73;107826;1290;21986;-67
2023/02/28 10:11:30;;;;;;;14.30;11.30;;;;;;;13.06;58.92;101851.39;107777;1290;22006;-67
2023/02/28 10:14:05;;;;;;;13.40;10.50;;;;;;;13.25;59.35;101841.35;107826;1290;22012;-67
2023/02/28 10:16:41;;;;;;;12.90;10.10;;;;;;;13.39;58.41;101843.67;107766;1290;21961;-68
2023/02/28 10:19:16;;;;;;;11.10;9.50;;;;;;;13.47;56.91;101840.68;108168;1291;21996;-68
2023/02/28 10:21:46;;;;;;;14.50;9.80;;;;;;;13.38;56.23;101834.49;107889;1290;21998;-68
2023/02/28 10:24:53;;;;;;;12.80;9.20;;;;;;;13.34;57.69;101830.25;107736;1283;21965;-69
2023/02/28 10:27:24;;;;;;;16.90;11.80;;;;;;;13.29;55.53;101830.80;107837;1290;23683;-66
2023/02/28 10:29:51;;;;;;;12.00;9.90;;;;;;;13.07;53.78;101832.73;107817;1291;21998;-67
2023/02/28 10:32:19;;;;;;;12.00;8.90;;;;;;;12.82;52.46;101833.76;107850;1291;21996;-67
2023/02/28 10:35:09;;;;;;;13.10;9.50;;;;;;;12.69;54.01;101833.55;107907;1290;22003;-67
2023/02/28 10:37:38;;;;;;;12.70;9.00;;;;;;;12.85;56.50;101829.88;107920;1290;22007;-68
2023/02/28 10:40:32;;;;;;;10.30;8.80;;;;;;;13.00;56.81;101830.08;107755;1290;21996;-68
2023/02/28 10:42:59;;;;;;;10.30;8.60;;;;;;;12.99;57.32;101827.61;107929;1290;21988;-68
2023/02/28 10:45:34;;;;;;;11.30;9.00;;;;;;;13.00;57.13;101824.44;108007;1286;23621;-67
2023/02/28 10:48:14;;;;;;;12.00;9.50;;;;;;;12.99;56.27;101824.98;107999;1290;22000;-66
2023/02/28 10:50:49;;;;;;;16.40;11.70;;;;;;;12.94;56.22;101825.84;106500;1290;1002486;-69
2023/02/28 10:53:25;;;;;;;14.80;10.80;;;;;;;12.88;56.24;101830.41;107912;1290;21988;-69
2023/02/28 10:56:07;;;;;;;11.90;9.80;;;;;;;12.80;55.76;101830.77;107956;1287;22020;-66
2023/02/28 10:58:54;;;;;;;12.10;9.40;;;;;;;12.71;55.87;101830.21;107943;1287;23735;-67
2023/02/28 11:01:22;;;;;;;12.50;9.20;;;;;;;12.66;56.68;101831.79;107846;1290;23615;-66
2023/02/28 11:03:48;;;;;;;14.10;11.30;;;;;;;12.62;56.07;101832.31;108089;1290;21990;-66
2023/02/28 11:06:18;;;;;;;13.10;10.40;;;;;;;12.60;55.91;101830.54;108002;1290;21990;-68
2023/02/28 11:08:47;;;;;;;12.80;10.60;;;;;;;12.59;57.04;101831.06;107947;1290;23615;-67
2023/02/28 11:11:13;;;;;;;12.00;9.60;;;;;;;12.61;57.57;101832.12;107861;1290;21999;-68
2023/02/28 11:13:38;;;;;;;14.60;10.30;;;;;;;12.65;57.41;101829.84;107673;1290;21996;-67
2023/02/28 11:16:07;;;;;;;10.90;9.40;;;;;;;12.75;56.99;101828.46;107828;1290;21999;-67
2023/02/28 11:18:41;;;;;;;11.30;9.10;;;;;;;12.76;56.22;101829.00;107935;1290;23615;-67
2023/02/28 11:21:06;;;;;;;10.90;9.00;;;;;;;12.81;57.16;101831.29;107903;1290;21999;-68
2023/02/28 11:23:34;;;;;;;14.10;10.60;;;;;;;12.86;56.55;101831.65;107822;1290;22080;-68